createdAt,value
2022-09-03T00:00:07.207Z,57.30
2022-09-03T00:01:07.230Z,57.10
2022-09-03T00:02:07.230Z,57.07
2022-09-03T00:03:07.486Z,56.57
2022-09-03T00:04:07.168Z,56.36
2022-09-03T00:05:07.162Z,56.97
2022-09-03T00:06:07.153Z,57.71
2022-09-03T00:07:07.387Z,56.46
2022-09-03T00:08:07.171Z,57.07
2022-09-03T00:09:08.519Z,56.64
2022-09-03T00:10:07.136Z,56.64
2022-09-03T00:11:07.083Z,56.64
2022-09-03T00:12:07.073Z,56.46
2022-09-03T00:13:07.091Z,56.87
2022-09-03T00:14:07.093Z,56.26
2022-09-03T00:15:07.024Z,56.36
2022-09-03T00:16:07.068Z,56.95
2022-09-03T00:17:07.090Z,54.79
2022-09-03T00:18:07.048Z,54.86
2022-09-03T00:19:07.756Z,55.17
2022-09-03T00:20:06.979Z,55.10
2022-09-03T00:21:07.048Z,55.47
2022-09-03T00:22:06.975Z,55.27
2022-09-03T00:23:06.948Z,54.66
2022-09-03T00:24:07.005Z,55.27
2022-09-03T00:25:06.933Z,55.07
2022-09-03T00:26:06.972Z,55.57
2022-09-03T00:27:06.904Z,54.66
2022-09-03T00:28:06.905Z,54.97
2022-09-03T00:29:06.988Z,55.80
2022-09-03T00:30:06.905Z,54.89
2022-09-03T00:31:06.941Z,55.50
2022-09-03T00:32:06.862Z,55.47
2022-09-03T00:33:06.841Z,55.17
2022-09-03T00:34:06.840Z,54.56
2022-09-03T00:35:06.860Z,54.97
2022-09-03T00:36:06.804Z,55.47
2022-09-03T00:37:06.807Z,55.47
2022-09-03T00:38:06.803Z,54.56
2022-09-03T00:39:06.819Z,55.50
2022-09-03T00:40:06.818Z,56.10
2022-09-03T00:41:06.766Z,57.04
2022-09-03T00:42:06.747Z,56.74
2022-09-03T00:43:06.761Z,56.84
2022-09-03T00:44:06.712Z,56.44
2022-09-03T00:45:06.725Z,56.54
2022-09-03T00:46:06.748Z,56.74
2022-09-03T00:47:06.683Z,56.74
2022-09-03T00:48:06.693Z,56.84
2022-09-03T00:49:06.692Z,57.07
2022-09-03T00:50:06.642Z,56.16
2022-09-03T00:51:06.652Z,56.87
2022-09-03T00:52:06.624Z,56.44
2022-09-03T00:53:06.668Z,56.13
2022-09-03T00:54:06.634Z,56.95
2022-09-03T00:55:06.837Z,56.64
2022-09-03T00:56:06.654Z,56.54
2022-09-03T00:57:06.771Z,56.44
2022-09-03T00:58:06.566Z,56.84
2022-09-03T00:59:06.555Z,56.34
2022-09-03T01:00:06.570Z,57.04
2022-09-03T01:01:06.569Z,57.04
2022-09-03T01:02:06.608Z,57.30
2022-09-03T01:03:06.532Z,57.40
2022-09-03T01:04:06.497Z,56.77
2022-09-03T01:05:06.550Z,56.44
2022-09-03T01:06:06.534Z,56.64
2022-09-03T01:07:06.488Z,56.61
2022-09-03T01:08:06.487Z,56.61
2022-09-03T01:09:06.470Z,56.84
2022-09-03T01:10:06.451Z,57.02
2022-09-03T01:11:06.505Z,56.84
2022-09-03T01:12:06.445Z,56.54
2022-09-03T01:13:06.464Z,56.74
2022-09-03T01:14:06.400Z,57.04
2022-09-03T01:15:06.382Z,56.95
2022-09-03T01:16:06.403Z,56.87
2022-09-03T01:17:06.381Z,56.87
2022-09-03T01:18:06.346Z,56.57
2022-09-03T01:19:06.334Z,56.87
2022-09-03T01:20:06.322Z,57.04
2022-09-03T01:21:06.327Z,56.87
2022-09-03T01:22:06.353Z,58.82
2022-09-03T01:23:06.304Z,59.16
2022-09-03T01:24:06.328Z,59.79
2022-09-03T01:25:06.270Z,59.69
2022-09-03T01:26:06.266Z,59.59
2022-09-03T01:27:06.290Z,59.05
2022-09-03T01:28:06.229Z,58.85
2022-09-03T01:29:07.313Z,59.05
2022-09-03T01:30:06.300Z,58.75
2022-09-03T01:31:06.214Z,58.95
2022-09-03T01:32:06.216Z,58.95
2022-09-03T01:33:06.218Z,59.26
2022-09-03T01:34:06.188Z,57.60
2022-09-03T01:35:06.159Z,57.40
2022-09-03T01:36:06.145Z,56.87
2022-09-03T01:37:06.146Z,57.58
2022-09-03T01:38:06.190Z,58.09
2022-09-03T01:39:06.114Z,58.42
2022-09-03T01:40:06.219Z,58.62
2022-09-03T01:41:06.108Z,58.85
2022-09-03T01:42:06.132Z,59.56
2022-09-03T01:43:06.064Z,59.99
2022-09-03T01:44:06.109Z,59.59
2022-09-03T01:45:06.072Z,59.08
2022-09-03T01:46:06.165Z,59.89
2022-09-03T01:47:06.089Z,60.30
2022-09-03T01:48:06.043Z,60.20
2022-09-03T01:49:06.091Z,59.69
2022-09-03T01:50:05.993Z,59.39
2022-09-03T01:51:06.015Z,60.30
2022-09-03T01:52:05.978Z,58.98
2022-09-03T01:53:05.953Z,60.10
2022-09-03T01:54:05.984Z,59.39
2022-09-03T01:55:05.962Z,59.89
2022-09-03T01:56:05.927Z,59.69
2022-09-03T01:57:05.934Z,60.50
2022-09-03T01:58:05.916Z,59.62
2022-09-03T01:59:05.923Z,59.79
2022-09-03T02:00:05.959Z,59.82
2022-09-03T02:01:05.961Z,59.79
2022-09-03T02:02:05.852Z,59.72
2022-09-03T02:03:05.864Z,60.74
2022-09-03T02:04:05.842Z,60.15
2022-09-03T02:05:05.873Z,61.74
2022-09-03T02:06:05.829Z,62.35
2022-09-03T02:07:05.841Z,62.11
2022-09-03T02:08:07.187Z,61.91
2022-09-03T02:09:06.082Z,61.51
2022-09-03T02:10:05.767Z,62.24
2022-09-03T02:11:05.803Z,61.63
2022-09-03T02:12:05.774Z,63.67
2022-09-03T02:13:05.748Z,63.87
2022-09-03T02:14:05.744Z,63.59
2022-09-03T02:15:05.742Z,63.29
2022-09-03T02:16:05.864Z,63.70
2022-09-03T02:17:05.754Z,63.19
2022-09-03T02:18:05.884Z,64.00
2022-09-03T02:19:05.683Z,63.49
2022-09-03T02:20:05.695Z,63.80
2022-09-03T02:21:05.650Z,63.26
2022-09-03T02:22:05.703Z,63.39
2022-09-03T02:23:05.631Z,63.90
2022-09-03T02:24:05.650Z,63.70
2022-09-03T02:25:05.609Z,63.49
2022-09-03T02:26:05.582Z,63.80
2022-09-03T02:27:05.631Z,63.70
2022-09-03T02:28:05.661Z,64.23
2022-09-03T02:29:05.570Z,63.73
2022-09-03T02:30:05.585Z,64.00
2022-09-03T02:31:05.611Z,63.49
2022-09-03T02:32:05.583Z,63.46
2022-09-03T02:33:05.553Z,62.45
2022-09-03T02:34:05.530Z,62.35
2022-09-03T02:35:05.499Z,62.55
2022-09-03T02:36:05.491Z,62.35
2022-09-03T02:37:05.492Z,62.24
2022-09-03T02:38:05.547Z,62.35
2022-09-03T02:39:05.447Z,62.11
2022-09-03T02:40:05.528Z,62.45
2022-09-03T02:41:05.428Z,62.55
2022-09-03T02:42:05.426Z,61.71
2022-09-03T02:43:06.449Z,61.81
2022-09-03T02:44:05.405Z,61.10
2022-09-03T02:45:05.385Z,60.15
2022-09-03T02:46:05.468Z,60.05
2022-09-03T02:47:05.363Z,59.52
2022-09-03T02:48:05.388Z,60.02
2022-09-03T02:49:05.364Z,59.82
2022-09-03T02:50:05.379Z,60.05
2022-09-03T02:51:07.959Z,59.92
2022-09-03T02:52:05.311Z,60.13
2022-09-03T02:53:05.321Z,59.72
2022-09-03T02:54:05.321Z,60.05
2022-09-03T02:55:05.259Z,60.25
2022-09-03T02:56:05.280Z,59.92
2022-09-03T02:57:05.270Z,60.02
2022-09-03T02:58:05.310Z,59.92
2022-09-03T02:59:05.257Z,59.52
2022-09-03T03:00:05.214Z,59.99
2022-09-03T03:01:05.438Z,59.21
2022-09-03T03:02:05.257Z,60.25
2022-09-03T03:03:05.207Z,61.20
2022-09-03T03:04:05.794Z,62.24
2022-09-03T03:05:05.144Z,62.14
2022-09-03T03:06:05.185Z,62.55
2022-09-03T03:07:05.165Z,62.04
2022-09-03T03:08:05.126Z,62.45
2022-09-03T03:09:05.166Z,62.35
2022-09-03T03:10:05.147Z,63.49
2022-09-03T03:11:05.128Z,63.29
2022-09-03T03:12:05.092Z,63.70
2022-09-03T03:13:05.591Z,64.00
2022-09-03T03:14:05.081Z,64.75
2022-09-03T03:15:05.081Z,63.80
2022-09-03T03:16:05.030Z,63.49
2022-09-03T03:17:05.066Z,62.96
2022-09-03T03:18:05.038Z,63.19
2022-09-03T03:19:05.047Z,63.16
2022-09-03T03:20:04.995Z,63.70
2022-09-03T03:21:05.001Z,63.39
2022-09-03T03:22:04.986Z,63.80
2022-09-03T03:23:04.970Z,63.70
2022-09-03T03:24:04.996Z,63.62
2022-09-03T03:25:04.931Z,64.23
2022-09-03T03:26:04.919Z,64.44
2022-09-03T03:27:04.930Z,63.70
2022-09-03T03:28:04.911Z,63.80
2022-09-03T03:29:04.925Z,63.90
2022-09-03T03:30:04.943Z,63.39
2022-09-03T03:31:04.893Z,63.29
2022-09-03T03:32:04.847Z,63.59
2022-09-03T03:33:04.831Z,63.80
2022-09-03T03:34:04.864Z,63.49
2022-09-03T03:35:04.882Z,63.39
2022-09-03T03:36:04.878Z,63.42
2022-09-03T03:37:04.807Z,64.61
2022-09-03T03:38:04.802Z,63.49
2022-09-03T03:39:04.818Z,63.59
2022-09-03T03:40:04.890Z,63.49
2022-09-03T03:41:04.764Z,63.49
2022-09-03T03:42:04.731Z,64.03
2022-09-03T03:43:04.748Z,64.54
2022-09-03T03:44:04.736Z,64.37
2022-09-03T03:45:04.757Z,65.62
2022-09-03T03:46:04.758Z,65.95
2022-09-03T03:47:04.698Z,66.23
2022-09-03T03:48:04.666Z,66.33
2022-09-03T03:49:04.699Z,66.03
2022-09-03T03:50:04.667Z,66.10
2022-09-03T03:51:04.704Z,66.13
2022-09-03T03:52:04.647Z,65.80
2022-09-03T03:53:04.633Z,66.00
2022-09-03T03:54:05.611Z,65.80
2022-09-03T03:55:04.604Z,65.08
2022-09-03T03:56:04.624Z,65.49
2022-09-03T03:57:04.607Z,64.87
2022-09-03T03:58:04.550Z,64.78
2022-09-03T03:59:04.570Z,64.37
2022-09-03T04:00:04.527Z,65.80
2022-09-03T04:01:04.558Z,66.33
2022-09-03T04:02:04.606Z,66.03
2022-09-03T04:03:04.486Z,66.00
2022-09-03T04:04:04.490Z,64.78
2022-09-03T04:05:04.514Z,65.69
2022-09-03T04:06:04.490Z,66.33
2022-09-03T04:07:04.496Z,66.44
2022-09-03T04:08:05.225Z,66.67
2022-09-03T04:09:04.441Z,66.67
2022-09-03T04:10:04.441Z,67.41
2022-09-03T04:11:04.404Z,68.13
2022-09-03T04:12:04.445Z,68.16
2022-09-03T04:13:04.374Z,68.67
2022-09-03T04:14:04.372Z,68.80
2022-09-03T04:15:04.379Z,69.73
2022-09-03T04:16:04.329Z,69.21
2022-09-03T04:17:04.468Z,69.96
2022-09-03T04:18:04.362Z,70.98
2022-09-03T04:19:04.334Z,71.22
2022-09-03T04:20:04.288Z,71.56
2022-09-03T04:21:04.285Z,71.33
2022-09-03T04:22:04.300Z,71.12
2022-09-03T04:23:04.312Z,71.01
2022-09-03T04:24:04.240Z,69.93
2022-09-03T04:25:04.250Z,69.21
2022-09-03T04:26:04.221Z,68.98
2022-09-03T04:27:04.230Z,68.88
2022-09-03T04:28:04.213Z,68.95
2022-09-03T04:29:04.215Z,68.23
2022-09-03T04:30:04.202Z,68.03
2022-09-03T04:31:04.208Z,67.52
2022-09-03T04:32:04.141Z,67.32
2022-09-03T04:33:04.208Z,68.57
2022-09-03T04:34:04.126Z,69.42
2022-09-03T04:35:04.123Z,70.98
2022-09-03T04:36:04.120Z,71.22
2022-09-03T04:37:04.099Z,71.94
2022-09-03T04:38:04.084Z,71.53
2022-09-03T04:39:04.114Z,71.53
2022-09-03T04:40:04.119Z,71.22
2022-09-03T04:41:04.068Z,71.39
2022-09-03T04:42:04.034Z,70.64
2022-09-03T04:43:04.022Z,70.17
2022-09-03T04:44:04.051Z,70.98
2022-09-03T04:45:04.063Z,70.98
2022-09-03T04:46:04.269Z,71.29
2022-09-03T04:47:04.056Z,70.64
2022-09-03T04:48:04.104Z,69.82
2022-09-03T06:25:46.836Z,44.06
2022-09-03T06:30:09.970Z,42.90
2022-09-03T06:55:31.320Z,39.20
2022-09-03T06:56:34.955Z,40.58
2022-09-03T06:57:32.426Z,40.45
2022-09-03T06:58:30.792Z,43.70
2022-09-03T06:59:30.904Z,43.85
2022-09-03T07:00:30.834Z,42.91
2022-09-03T07:01:31.512Z,42.99
2022-09-03T07:02:30.739Z,41.44
2022-09-03T07:03:30.750Z,40.38
2022-09-03T07:04:30.708Z,40.04
2022-09-03T07:05:30.703Z,40.56
2022-09-03T07:06:30.618Z,39.40
2022-09-03T07:07:30.746Z,40.34
2022-09-03T07:08:30.629Z,41.39
2022-09-03T07:09:31.795Z,41.30
2022-09-03T07:10:31.901Z,46.36
2022-09-03T07:11:31.795Z,47.38
2022-09-03T07:12:31.783Z,44.04
2022-09-03T07:13:31.773Z,42.49
2022-09-03T07:14:31.722Z,44.40
2022-09-03T07:15:31.824Z,45.95
2022-09-03T07:16:31.694Z,46.47
2022-09-03T07:17:31.755Z,45.70
2022-09-03T07:18:31.877Z,46.11
2022-09-03T07:19:31.742Z,44.35
2022-09-03T07:23:10.965Z,45.83
2022-09-03T07:24:10.931Z,45.60
2022-09-03T07:25:11.088Z,44.84
2022-09-03T07:26:10.815Z,43.63
2022-09-03T07:27:14.374Z,43.41
2022-09-03T07:28:10.773Z,44.82
2022-09-03T07:29:10.853Z,44.24
2022-09-03T07:30:10.771Z,45.01
2022-09-03T07:31:10.875Z,42.18
2022-09-03T07:32:10.785Z,43.58
2022-09-03T07:33:10.729Z,45.66
2022-09-03T07:34:10.804Z,44.28
2022-09-03T07:35:10.684Z,45.84
2022-09-03T07:36:10.674Z,47.09
2022-09-03T07:37:10.694Z,47.43
2022-09-03T07:38:10.665Z,45.18
2022-09-03T07:39:10.636Z,45.16
2022-09-03T07:40:10.626Z,44.74
2022-09-03T07:41:10.627Z,42.55
2022-09-03T07:42:10.611Z,41.83
2022-09-03T07:43:10.617Z,41.69
2022-09-03T07:44:10.565Z,41.93
2022-09-03T07:45:10.559Z,42.97
2022-09-03T07:46:10.573Z,41.85
2022-09-03T07:47:10.567Z,43.01
2022-09-03T07:48:10.528Z,44.34
2022-09-03T07:49:10.532Z,43.82
2022-09-03T07:50:10.493Z,43.90
2022-09-03T07:51:10.522Z,43.66
2022-09-03T07:52:11.881Z,43.59
2022-09-03T07:53:10.464Z,43.57
2022-09-03T07:54:10.659Z,45.18
2022-09-03T07:55:10.459Z,46.30
2022-09-03T07:56:10.425Z,45.86
2022-09-03T07:57:10.417Z,44.21
2022-09-03T07:58:10.424Z,43.90
2022-09-03T07:59:10.438Z,42.73
2022-09-03T08:00:20.886Z,40.56
2022-09-03T08:01:20.593Z,41.39
2022-09-03T08:02:10.417Z,41.71
2022-09-03T08:03:10.533Z,42.82
2022-09-03T08:04:10.417Z,41.83
2022-09-03T08:05:10.396Z,40.56
2022-09-03T08:06:10.472Z,40.34
2022-09-03T08:07:10.293Z,40.89
2022-09-03T08:08:10.464Z,41.96
2022-09-03T08:09:10.272Z,44.20
2022-09-03T08:10:10.256Z,44.27
2022-09-03T08:11:10.267Z,43.77
2022-09-03T08:12:10.222Z,42.73
2022-09-03T08:13:10.215Z,43.65
2022-09-03T08:14:10.208Z,43.85
2022-09-03T08:15:10.196Z,43.67
2022-09-03T08:16:11.379Z,42.65
2022-09-03T08:17:11.285Z,42.63
2022-09-03T08:18:11.280Z,41.91
2022-09-03T08:19:11.276Z,41.91
2022-09-03T08:20:11.258Z,43.53
2022-09-03T08:21:11.273Z,44.15
2022-09-03T08:22:11.211Z,45.28
2022-09-03T08:23:11.202Z,48.11
2022-09-03T08:24:11.272Z,47.81
2022-09-03T08:25:13.853Z,46.59
2022-09-03T08:26:11.167Z,49.01
2022-09-03T08:27:11.176Z,48.52
2022-09-03T08:28:11.166Z,48.98
2022-09-03T08:29:11.134Z,49.10
2022-09-03T08:30:11.120Z,50.15
2022-09-03T08:31:11.136Z,49.83
2022-09-03T08:32:11.145Z,49.01
2022-09-03T08:33:11.099Z,47.73
2022-09-03T08:34:11.092Z,47.25
2022-09-03T08:35:11.222Z,47.55
2022-09-03T08:36:11.190Z,47.65
2022-09-03T08:37:11.122Z,48.32
2022-09-03T08:38:11.071Z,50.05
2022-09-03T08:39:11.189Z,49.51
2022-09-03T08:40:11.013Z,48.53
2022-09-03T08:41:10.994Z,46.11
2022-09-03T08:42:10.976Z,46.50
2022-09-03T08:43:11.024Z,48.05
2022-09-03T08:44:10.959Z,47.93
2022-09-03T08:45:10.940Z,47.91
2022-09-03T08:46:11.020Z,46.61
2022-09-03T08:47:10.917Z,46.18
2022-09-03T08:48:10.918Z,46.56
2022-09-03T08:49:10.910Z,46.58
2022-09-03T08:50:10.885Z,48.16
2022-09-03T08:51:10.869Z,48.05
2022-09-03T08:52:10.862Z,47.41
2022-09-03T08:53:10.884Z,48.01
2022-09-03T08:54:10.825Z,46.11
2022-09-03T08:55:10.825Z,47.61
2022-09-03T08:56:10.810Z,47.20
2022-09-03T08:57:10.789Z,46.62
2022-09-03T08:58:10.834Z,48.23
2022-09-03T08:59:10.769Z,47.63
2022-09-03T09:00:10.751Z,47.23
2022-09-03T09:01:10.741Z,46.98
2022-09-03T09:02:10.830Z,47.99
2022-09-03T09:03:10.721Z,45.84
2022-09-03T09:04:10.729Z,46.34
2022-09-03T09:05:14.255Z,45.34
2022-09-03T09:06:10.680Z,46.46
2022-09-03T09:07:10.673Z,45.76
2022-09-03T09:08:10.660Z,46.62
2022-09-03T09:09:10.682Z,47.91
2022-09-03T09:10:10.643Z,48.73
2022-09-03T09:11:10.646Z,48.08
2022-09-03T09:12:10.619Z,46.58
2022-09-03T09:13:10.594Z,46.22
2022-09-03T09:14:10.596Z,46.17
2022-09-03T09:15:10.593Z,44.20
2022-09-03T09:16:10.614Z,45.12
2022-09-03T09:17:10.547Z,44.92
2022-09-03T09:18:10.529Z,45.84
2022-09-03T09:19:10.529Z,45.64
2022-09-03T09:20:10.551Z,45.88
2022-09-03T09:21:10.503Z,45.88
2022-09-03T09:22:10.483Z,46.28
2022-09-03T09:23:10.462Z,46.26
2022-09-03T09:24:10.471Z,46.48
2022-09-03T09:25:10.459Z,46.48
2022-09-03T09:26:10.474Z,46.93
2022-09-03T09:27:15.386Z,46.38
2022-09-03T09:28:10.406Z,45.68
2022-09-03T09:29:10.412Z,47.28
2022-09-03T09:30:10.435Z,45.76
2022-09-03T09:31:10.449Z,45.81
2022-09-03T09:32:10.390Z,45.26
2022-09-03T09:33:10.355Z,45.90
2022-09-03T09:34:10.350Z,45.80
2022-09-03T09:35:10.326Z,46.35
2022-09-03T09:36:10.371Z,46.75
2022-09-03T09:37:10.318Z,46.61
2022-09-03T09:38:10.286Z,46.58
2022-09-03T09:39:10.290Z,46.36
2022-09-03T09:40:47.373Z,45.98
2022-09-03T09:41:10.681Z,46.28
2022-09-03T09:42:10.551Z,46.00
2022-09-03T09:43:10.450Z,46.68
2022-09-03T09:44:10.229Z,44.93
2022-09-03T09:45:11.416Z,45.76
2022-09-03T09:46:10.353Z,47.00
2022-09-03T09:47:10.265Z,45.96
2022-09-03T09:48:10.206Z,45.72
2022-09-03T09:49:10.222Z,45.42
2022-09-03T09:50:10.238Z,45.66
2022-09-03T09:51:10.141Z,45.74
2022-09-03T09:52:10.176Z,44.96
2022-09-03T09:53:10.152Z,44.92
2022-09-03T09:54:12.645Z,43.82
2022-09-03T09:55:10.221Z,43.41
2022-09-03T09:56:10.129Z,44.51
2022-09-03T09:57:10.113Z,44.34
2022-09-03T09:58:14.330Z,44.54
2022-09-03T09:59:10.092Z,45.14
2022-09-03T10:00:10.110Z,44.54
2022-09-03T10:01:10.102Z,45.36
2022-09-03T10:02:10.273Z,44.48
2022-09-03T10:03:10.116Z,45.70
2022-09-03T10:04:10.166Z,44.28
2022-09-03T10:05:10.107Z,45.38
2022-09-03T10:06:09.994Z,45.60
2022-09-03T10:07:10.134Z,46.73
2022-09-03T10:08:09.964Z,46.41
2022-09-03T10:09:09.945Z,45.38
2022-09-03T10:10:10.101Z,45.26
2022-09-03T10:11:10.019Z,45.94
2022-09-03T10:12:09.993Z,44.34
2022-09-03T10:13:09.917Z,44.13
2022-09-03T10:14:09.944Z,45.34
2022-09-03T10:15:09.902Z,45.43
2022-09-03T10:16:09.912Z,43.79
2022-09-03T10:17:09.870Z,43.29
2022-09-03T10:18:09.927Z,42.91
2022-09-03T10:19:09.846Z,43.84
2022-09-03T10:20:09.805Z,44.71
2022-09-03T10:21:09.819Z,44.24
2022-09-03T10:22:09.845Z,44.74
2022-09-03T10:23:09.821Z,44.74
2022-09-03T10:24:09.798Z,44.34
2022-09-03T10:25:09.773Z,43.85
2022-09-03T10:26:09.769Z,44.24
2022-09-03T10:27:09.768Z,44.74
2022-09-03T10:28:09.784Z,43.82
2022-09-03T10:29:09.749Z,42.83
2022-09-03T10:30:09.685Z,43.93
2022-09-03T10:31:09.794Z,42.79
2022-09-03T10:32:09.736Z,43.85
2022-09-03T10:33:09.670Z,41.33
2022-09-03T10:34:09.738Z,41.31
2022-09-03T10:35:09.791Z,42.02
2022-09-03T10:36:09.645Z,42.10
2022-09-03T10:37:09.742Z,41.02
2022-09-03T10:38:09.951Z,41.44
2022-09-03T10:39:09.640Z,42.49
2022-09-03T10:40:09.642Z,40.86
2022-09-03T10:41:09.676Z,42.24
2022-09-03T10:42:09.635Z,41.52
2022-09-03T10:43:09.701Z,40.70
2022-09-03T10:44:09.548Z,41.41
2022-09-03T10:45:09.745Z,41.00
2022-09-03T10:46:09.640Z,40.70
2022-09-03T10:47:09.532Z,39.36
2022-09-03T10:48:09.531Z,40.26
2022-09-03T10:49:09.502Z,40.16
2022-09-03T10:50:09.587Z,40.06
2022-09-03T10:51:09.436Z,39.34
2022-09-03T10:52:09.507Z,38.46
2022-09-03T10:53:09.508Z,39.08
2022-09-03T10:54:09.759Z,39.28
2022-09-03T10:55:09.520Z,40.12
2022-09-03T10:56:09.533Z,40.59
2022-09-03T10:57:09.397Z,40.38
2022-09-03T10:58:09.733Z,40.48
2022-09-03T10:59:09.341Z,38.76
2022-09-03T11:00:09.477Z,40.52
2022-09-03T11:01:09.355Z,40.58
2022-09-03T11:02:09.325Z,39.80
2022-09-03T11:03:09.329Z,40.40
2022-09-03T11:04:09.328Z,40.89
2022-09-03T11:05:09.287Z,41.58
2022-09-03T11:06:09.294Z,40.36
2022-09-03T11:07:09.648Z,40.56
2022-09-03T11:08:09.264Z,40.34
2022-09-03T11:09:09.275Z,39.32
2022-09-03T11:10:09.264Z,40.84
2022-09-03T11:11:09.253Z,38.51
2022-09-03T11:12:09.596Z,40.26
2022-09-03T11:13:09.405Z,40.84
2022-09-03T11:14:24.297Z,40.34
2022-09-03T11:15:09.490Z,39.12
2022-09-03T11:16:09.294Z,40.42
2022-09-03T11:17:10.185Z,39.46
2022-09-03T11:18:09.267Z,40.08
2022-09-03T11:19:09.141Z,41.91
2022-09-03T11:20:09.132Z,41.39
2022-09-03T11:21:12.231Z,40.30
2022-09-03T11:22:09.491Z,40.56
2022-09-03T11:23:10.061Z,40.70
2022-09-03T11:24:09.090Z,40.62
2022-09-03T11:25:09.127Z,40.94
2022-09-03T11:26:09.187Z,40.92
2022-09-03T11:27:09.065Z,41.41
2022-09-03T11:28:09.098Z,40.50
2022-09-03T11:29:09.027Z,41.00
2022-09-03T11:30:09.010Z,42.19
2022-09-03T11:31:10.127Z,42.10
2022-09-03T11:32:09.007Z,40.36
2022-09-03T11:33:09.056Z,40.30
2022-09-03T11:34:09.057Z,40.92
2022-09-03T11:35:08.965Z,42.21
2022-09-03T11:36:08.982Z,41.83
2022-09-03T11:37:09.018Z,42.33
2022-09-03T11:38:08.904Z,42.11
2022-09-03T11:39:08.968Z,42.29
2022-09-03T11:40:08.977Z,40.80
2022-09-03T11:41:08.878Z,42.54
2022-09-03T11:42:08.975Z,41.83
2022-09-03T11:43:08.903Z,42.25
2022-09-03T11:44:08.837Z,43.35
2022-09-03T11:45:08.947Z,43.67
2022-09-03T11:46:08.916Z,43.77
2022-09-03T11:47:08.821Z,42.68
2022-09-03T11:48:08.832Z,42.15
2022-09-03T11:49:08.862Z,42.71
2022-09-03T11:50:08.796Z,40.72
2022-09-03T11:51:08.769Z,41.33
2022-09-03T11:52:08.804Z,41.85
2022-09-03T11:53:09.447Z,43.13
2022-09-03T11:54:08.772Z,41.91
2022-09-03T11:55:09.124Z,42.69
2022-09-03T11:56:08.757Z,41.08
2022-09-03T11:57:08.789Z,40.59
2022-09-03T11:58:08.735Z,40.12
2022-09-03T11:59:08.687Z,42.15
2022-09-03T12:00:08.885Z,42.07
2022-09-03T12:01:08.704Z,41.33
2022-09-03T12:02:09.322Z,40.80
2022-09-03T12:03:08.662Z,40.64
2022-09-03T12:04:08.729Z,40.74
2022-09-03T12:05:08.608Z,39.54
2022-09-03T12:06:08.624Z,40.76
2022-09-03T12:07:08.742Z,40.36
2022-09-03T12:08:09.156Z,40.68
2022-09-03T12:09:08.705Z,40.59
2022-09-03T12:10:09.269Z,40.40
2022-09-03T12:11:08.592Z,40.48
2022-09-03T12:12:08.576Z,40.34
2022-09-03T12:13:08.573Z,40.32
2022-09-03T12:14:13.596Z,40.80
2022-09-03T12:15:08.523Z,41.11
2022-09-03T12:16:08.697Z,42.03
2022-09-03T12:17:08.513Z,42.21
2022-09-03T12:18:08.530Z,41.09
2022-09-03T12:19:12.795Z,41.61
2022-09-03T12:20:08.509Z,42.15
2022-09-03T12:21:08.548Z,41.93
2022-09-03T12:22:08.450Z,42.13
2022-09-03T12:23:08.512Z,42.43
2022-09-03T12:24:08.549Z,41.83
2022-09-03T12:25:08.434Z,42.02
2022-09-03T12:26:08.465Z,41.97
2022-09-03T12:27:08.419Z,41.93
2022-09-03T12:28:08.393Z,41.14
2022-09-03T12:29:09.365Z,41.71
2022-09-03T12:30:08.414Z,40.81
2022-09-03T12:31:08.429Z,41.96
2022-09-03T12:32:08.807Z,42.55
2022-09-03T12:33:08.391Z,41.85
2022-09-03T12:34:08.462Z,41.63
2022-09-03T12:35:08.695Z,42.02
2022-09-03T12:36:08.345Z,41.74
2022-09-03T12:37:08.379Z,41.96
2022-09-03T12:38:09.503Z,42.65
2022-09-03T12:39:12.070Z,42.73
2022-09-03T12:40:09.437Z,41.53
2022-09-03T12:41:27.626Z,42.63
2022-09-03T12:42:10.261Z,43.83
2022-09-03T12:44:08.272Z,42.27
2022-09-03T12:45:08.182Z,43.65
2022-09-03T12:46:11.642Z,42.35
2022-09-03T12:47:38.726Z,43.59
2022-09-03T12:48:10.155Z,43.87
2022-09-03T12:50:08.143Z,43.85
2022-09-03T12:52:08.118Z,43.90
2022-09-03T12:53:08.088Z,44.12
2022-09-03T12:54:08.071Z,44.84
2022-09-03T12:55:08.080Z,45.51
2022-09-03T12:56:08.095Z,44.62
2022-09-03T12:57:08.639Z,45.01
2022-09-03T12:58:12.868Z,44.42
2022-09-03T12:59:08.005Z,44.62
2022-09-03T13:00:08.844Z,44.74
2022-09-03T13:01:08.051Z,44.82
2022-09-03T13:02:08.074Z,44.62
2022-09-03T13:03:07.985Z,45.20
2022-09-03T13:04:08.453Z,43.59
2022-09-03T13:05:08.120Z,43.77
2022-09-03T13:06:07.951Z,44.67
2022-09-03T13:07:08.101Z,44.97
2022-09-03T13:08:07.928Z,44.07
2022-09-03T13:09:07.892Z,43.98
2022-09-03T13:10:08.025Z,43.27
2022-09-03T13:11:07.897Z,44.15
2022-09-03T13:12:07.867Z,44.15
2022-09-03T13:13:07.915Z,44.27
2022-09-03T13:14:07.886Z,44.67
2022-09-03T13:15:07.881Z,43.48
2022-09-03T13:16:07.872Z,45.85
2022-09-03T13:17:07.802Z,43.25
2022-09-03T13:18:07.842Z,43.07
2022-09-03T13:19:07.893Z,44.47
2022-09-03T13:20:07.834Z,45.17
2022-09-03T13:21:07.845Z,43.85
2022-09-03T13:22:07.719Z,43.99
2022-09-03T13:23:07.761Z,43.79
2022-09-03T13:24:07.713Z,44.59
2022-09-03T13:25:07.736Z,43.40
2022-09-03T13:26:07.724Z,44.79
2022-09-03T13:27:07.683Z,43.49
2022-09-03T13:28:07.675Z,44.49
2022-09-03T13:29:07.677Z,45.09
2022-09-03T13:30:07.742Z,44.62
2022-09-03T13:31:07.678Z,44.79
2022-09-03T13:32:07.628Z,44.09
2022-09-03T13:33:07.614Z,43.90
2022-09-03T13:34:07.670Z,43.90
2022-09-03T13:35:07.635Z,43.49
2022-09-03T13:43:44.217Z,43.70
2022-09-03T13:44:44.172Z,44.29
2022-09-03T13:45:44.261Z,44.20
2022-09-03T13:46:44.089Z,44.09
2022-09-03T13:47:44.079Z,43.77
2022-09-03T13:48:44.013Z,44.57
2022-09-03T13:49:44.041Z,44.37
2022-09-03T13:50:44.027Z,44.87
2022-09-03T13:51:43.999Z,44.17
2022-09-03T13:52:44.000Z,44.05
2022-09-03T13:53:43.989Z,44.57
2022-09-03T13:54:49.090Z,43.77
2022-09-03T13:55:43.927Z,43.49
2022-09-03T13:56:43.901Z,43.70
2022-09-03T13:57:43.909Z,44.87
2022-09-03T13:58:43.898Z,44.47
2022-09-03T13:59:43.873Z,43.40
2022-09-03T14:00:43.855Z,44.89
2022-09-03T14:01:43.935Z,44.39
2022-09-03T14:02:43.876Z,45.87
2022-09-03T14:03:48.608Z,44.75
2022-09-03T14:04:44.811Z,44.05
2022-09-03T14:05:43.792Z,44.35
2022-09-03T14:06:43.772Z,43.95
2022-09-03T14:07:43.766Z,43.83
2022-09-03T14:08:43.761Z,43.15
2022-09-03T14:09:43.755Z,43.55
2022-09-03T14:10:43.722Z,43.75
2022-09-03T14:11:43.759Z,43.98
2022-09-03T14:12:43.695Z,43.87
2022-09-03T14:13:43.717Z,44.97
2022-09-03T14:14:43.670Z,43.67
2022-09-03T14:15:45.696Z,43.25
2022-09-03T14:16:43.696Z,44.15
2022-09-03T14:17:43.885Z,42.76
2022-09-03T14:18:44.250Z,44.93
2022-09-03T14:19:43.730Z,42.57
2022-09-03T14:20:43.596Z,43.65
2022-09-03T14:21:43.588Z,43.77
2022-09-03T14:22:43.563Z,43.48
2022-09-03T14:23:43.583Z,43.37
2022-09-03T14:24:43.546Z,44.07
2022-09-03T14:25:47.481Z,43.48
2022-09-03T14:26:43.520Z,44.57
2022-09-03T14:27:43.511Z,43.49
2022-09-03T14:28:43.506Z,44.12
2022-09-03T14:29:43.483Z,44.79
2022-09-03T14:30:43.463Z,45.39
2022-09-03T14:31:43.498Z,45.12
2022-09-03T14:32:43.427Z,46.24
2022-09-03T14:33:43.446Z,46.64
2022-09-03T14:34:43.414Z,46.04
2022-09-03T14:35:43.396Z,46.94
2022-09-03T14:36:43.396Z,47.34
2022-09-03T14:37:43.375Z,46.54
2022-09-03T14:38:43.375Z,46.44
2022-09-03T14:39:43.484Z,46.24
2022-09-03T14:40:43.417Z,46.64
2022-09-03T14:41:43.328Z,46.06
2022-09-03T14:42:43.319Z,46.46
2022-09-03T14:43:43.330Z,46.86
2022-09-03T14:44:43.306Z,47.26
2022-09-03T14:45:43.344Z,46.36
2022-09-03T14:46:43.292Z,46.16
2022-09-03T14:47:43.242Z,46.28
2022-09-03T14:48:43.245Z,46.08
2022-09-03T14:49:43.218Z,47.06
2022-09-03T14:50:43.200Z,46.96
2022-09-03T14:51:43.244Z,46.66
2022-09-03T14:52:43.189Z,45.74
2022-09-03T14:53:43.201Z,46.16
2022-09-03T14:54:43.154Z,47.06
2022-09-03T14:55:43.155Z,47.16
2022-09-03T14:56:43.119Z,46.86
2022-09-03T14:57:43.111Z,46.56
2022-09-03T14:58:43.135Z,46.68
2022-09-03T14:59:43.091Z,46.28
2022-09-03T15:00:43.101Z,46.48
2022-09-03T15:01:43.063Z,47.99
2022-09-03T15:02:43.045Z,46.68
2022-09-03T15:03:43.050Z,47.78
2022-09-03T15:04:43.039Z,47.99
2022-09-03T15:05:43.036Z,48.36
2022-09-03T15:06:43.156Z,47.78
2022-09-03T15:07:42.992Z,48.08
2022-09-03T15:08:42.973Z,47.99
2022-09-03T15:09:42.984Z,47.88